createdAt,value
2019-02-05T00:00:45.974Z,102048.23
2019-02-05T00:03:21.356Z,102038.75
2019-02-05T00:05:53.770Z,102041.31
2019-02-05T00:08:25.299Z,102043.43
2019-02-05T00:10:57.297Z,102039.98
2019-02-05T00:13:28.812Z,102034.77
2019-02-05T00:16:00.386Z,102040.44
2019-02-05T00:18:32.136Z,102035.62
2019-02-05T00:21:03.682Z,102036.01
2019-02-05T00:23:35.832Z,102034.83
2019-02-05T00:26:07.325Z,102030.54
2019-02-05T00:28:38.853Z,102037.02
2019-02-05T00:31:10.476Z,102037.91
2019-02-05T00:33:42.200Z,102034.42
2019-02-05T00:36:14.033Z,102037.45
2019-02-05T00:38:45.684Z,102040.89
2019-02-05T00:41:17.198Z,102028.39
2019-02-05T00:43:48.745Z,102030.58
2019-02-05T00:46:20.315Z,102033.17
2019-02-05T00:48:52.430Z,102031.45
2019-02-05T00:51:23.985Z,102028.88
2019-02-05T00:53:55.497Z,102026.30
2019-02-05T00:56:27.096Z,102024.98
2019-02-05T00:58:58.583Z,102026.20
2019-02-05T01:01:30.423Z,102016.27
2019-02-05T01:04:02.219Z,102024.52
2019-02-05T01:06:33.773Z,102020.23
2019-02-05T01:09:07.536Z,102024.10
2019-02-05T01:11:39.536Z,102018.43
2019-02-05T01:14:12.881Z,102012.76
2019-02-05T01:16:44.378Z,102011.10
2019-02-05T01:19:16.328Z,102018.45
2019-02-05T01:21:47.794Z,102008.99
2019-02-05T01:24:20.447Z,102016.77
2019-02-05T01:26:51.923Z,102013.30
2019-02-05T01:29:23.398Z,102021.95
2019-02-05T01:31:54.971Z,102013.32
2019-02-05T01:34:26.584Z,102010.77
2019-02-05T01:36:58.282Z,102009.44
2019-02-05T01:39:29.748Z,102000.75
2019-02-05T01:42:01.262Z,102003.34
2019-02-05T01:44:32.687Z,102009.80
2019-02-05T01:47:04.203Z,102007.66
2019-02-05T01:49:36.532Z,102008.50
2019-02-05T01:52:08.014Z,102004.16
2019-02-05T01:54:39.535Z,102001.11
2019-02-05T01:57:10.988Z,102006.80
2019-02-05T01:59:42.687Z,102010.27
2019-02-05T02:02:14.391Z,102001.25
2019-02-05T02:04:45.941Z,102005.47
2019-02-05T02:07:17.386Z,102001.59
2019-02-05T02:09:48.827Z,102003.28
2019-02-05T02:12:20.476Z,102005.82
2019-02-05T02:14:51.960Z,101999.79
2019-02-05T02:17:23.396Z,102000.69
2019-02-05T02:19:55.108Z,102000.75
2019-02-05T02:22:26.576Z,101990.80
2019-02-05T02:24:58.399Z,101991.28
2019-02-05T02:27:29.835Z,101994.27
2019-02-05T02:30:02.453Z,101993.87
2019-02-05T02:32:33.950Z,102000.37
2019-02-05T02:35:05.458Z,101991.64
2019-02-05T02:37:36.909Z,101989.91
2019-02-05T02:40:09.098Z,101985.66
2019-02-05T02:42:40.641Z,101985.66
2019-02-05T02:45:13.342Z,101987.83
2019-02-05T02:47:44.811Z,101985.23
2019-02-05T02:50:17.868Z,101986.98
2019-02-05T02:52:49.885Z,101988.70
2019-02-05T02:55:21.417Z,101986.55
2019-02-05T02:57:52.996Z,101977.09
2019-02-05T03:00:24.541Z,101981.38
2019-02-05T03:02:55.999Z,101974.48
2019-02-05T03:05:27.815Z,101970.15
2019-02-05T03:07:59.270Z,101964.55
2019-02-05T03:10:32.113Z,101970.14
2019-02-05T03:13:03.623Z,101967.05
2019-02-05T03:15:35.424Z,101967.09
2019-02-05T03:18:06.960Z,101966.22
2019-02-05T03:20:38.913Z,101974.01
2019-02-05T03:23:10.354Z,101962.31
2019-02-05T03:25:41.904Z,101963.19
2019-02-05T03:28:13.353Z,101963.18
2019-02-05T03:30:44.879Z,101956.73
2019-02-05T03:33:16.344Z,101952.87
2019-02-05T03:35:48.136Z,101949.89
2019-02-05T03:38:19.642Z,101944.70
2019-02-05T03:41:10.609Z,101946.46
2019-02-05T03:43:42.789Z,101944.30
2019-02-05T03:46:17.972Z,101942.57
2019-02-05T03:48:50.290Z,101940.02
2019-02-05T03:51:47.115Z,101946.47
2019-02-05T03:55:12.190Z,101938.28
2019-02-05T03:58:52.403Z,101932.68
2019-02-05T04:02:28.009Z,101932.22
2019-02-05T04:05:33.404Z,101930.95
2019-02-05T04:09:08.808Z,101920.14
2019-02-05T04:12:44.427Z,101916.69
2019-02-05T04:16:04.550Z,101913.69
2019-02-05T04:19:20.208Z,101906.75
2019-02-05T04:22:41.103Z,101905.02
2019-02-05T04:26:14.384Z,101896.39
2019-02-05T04:29:29.904Z,101903.31
2019-02-05T04:32:52.377Z,101895.95
2019-02-05T04:36:32.441Z,101899.02
2019-02-05T04:40:32.147Z,101889.53
2019-02-05T04:44:07.410Z,101880.45
2019-02-05T04:47:19.042Z,101880.42
2019-02-05T04:50:16.159Z,101886.45
2019-02-05T04:53:32.846Z,101883.86
2019-02-05T04:57:07.562Z,101883.45
2019-02-05T05:00:29.646Z,101885.59
2019-02-05T05:03:59.115Z,101893.39
2019-02-05T05:06:58.513Z,101889.92
2019-02-05T05:09:58.604Z,101880.87
2019-02-05T05:12:31.091Z,101882.18
2019-02-05T05:15:02.818Z,101885.62
2019-02-05T05:17:34.370Z,101882.59
2019-02-05T05:20:09.014Z,101883.89
2019-02-05T05:22:40.457Z,101879.59
2019-02-05T05:25:13.800Z,101884.33
2019-02-05T05:27:45.868Z,101884.34
2019-02-05T05:30:19.625Z,101880.03
2019-02-05T05:32:51.560Z,101878.72
2019-02-05T05:35:23.009Z,101882.56
2019-02-05T05:37:54.735Z,101885.62
2019-02-05T05:40:26.227Z,101876.59
2019-02-05T05:42:57.832Z,101878.30
2019-02-05T05:45:29.658Z,101880.86
2019-02-05T05:48:01.267Z,101880.45
2019-02-05T05:50:33.114Z,101876.12
2019-02-05T05:53:05.244Z,101882.60
2019-02-05T05:55:36.769Z,101880.86
2019-02-05T05:58:08.353Z,101880.01
2019-02-05T06:00:39.854Z,101877.83
2019-02-05T06:03:11.342Z,101885.60
2019-02-05T06:05:42.888Z,101884.75
2019-02-05T06:08:14.575Z,101883.86
2019-02-05T06:10:46.114Z,101890.37
2019-02-05T06:13:17.792Z,101883.45
2019-02-05T06:15:49.256Z,101878.27
2019-02-05T06:18:21.141Z,101874.44
2019-02-05T06:20:52.601Z,101877.45
2019-02-05T06:23:24.035Z,101874.42
2019-02-05T06:25:55.476Z,101873.09
2019-02-05T06:28:34.779Z,101882.59
2019-02-05T06:31:00.762Z,101875.72
2019-02-05T06:33:32.230Z,101877.42
2019-02-05T06:36:03.781Z,101880.01
2019-02-05T06:38:35.207Z,101885.19
2019-02-05T06:41:06.648Z,101890.80
2019-02-05T06:43:38.591Z,101878.72
2019-02-05T06:46:10.147Z,101880.86
2019-02-05T06:48:41.630Z,101879.56
2019-02-05T06:51:13.135Z,101883.03
2019-02-05T06:53:44.645Z,101881.34
2019-02-05T06:56:16.163Z,101876.14
2019-02-05T06:58:47.865Z,101872.68
2019-02-05T07:01:19.348Z,101871.39
2019-02-05T07:03:50.842Z,101866.63
2019-02-05T07:06:22.284Z,101869.66
2019-02-05T07:08:53.739Z,101862.29
2019-02-05T07:11:25.583Z,101861.00
2019-02-05T07:13:58.228Z,101860.55
2019-02-05T07:16:29.948Z,101863.10
2019-02-05T07:19:01.477Z,101866.63
2019-02-05T07:21:32.943Z,101858.47
2019-02-05T07:24:04.890Z,101859.73
2019-02-05T07:26:36.349Z,101856.70
2019-02-05T07:29:08.648Z,101852.38
2019-02-05T07:31:40.156Z,101861.44
2019-02-05T07:34:11.884Z,101861.84
2019-02-05T07:36:43.543Z,101861.81
2019-02-05T07:39:14.998Z,101859.25
2019-02-05T07:41:46.444Z,101856.22
2019-02-05T07:44:17.936Z,101854.93
2019-02-05T07:46:49.582Z,101867.47
2019-02-05T07:49:21.112Z,101861.41
2019-02-05T07:51:52.598Z,101861.80
2019-02-05T07:54:24.138Z,101862.64
2019-02-05T07:56:55.716Z,101862.19
2019-02-05T07:59:27.571Z,101860.90
2019-02-05T08:01:59.059Z,101862.19
2019-02-05T08:04:30.577Z,101850.08
2019-02-05T08:07:02.323Z,101862.14
2019-02-05T08:09:33.850Z,101858.77
2019-02-05T08:12:05.328Z,101858.71
2019-02-05T08:14:38.438Z,101862.14
2019-02-05T08:17:10.016Z,101858.64
2019-02-05T08:19:41.763Z,101859.48
2019-02-05T08:22:13.700Z,101855.58
2019-02-05T08:24:45.287Z,101853.45
2019-02-05T08:27:16.732Z,101853.89
2019-02-05T08:29:48.572Z,101863.83
2019-02-05T08:32:20.125Z,101859.94
2019-02-05T08:34:51.591Z,101862.20
2019-02-05T08:37:23.286Z,101857.79
2019-02-05T08:39:54.834Z,101854.75
2019-02-05T08:42:26.315Z,101861.74
2019-02-05T08:44:57.779Z,101865.10
2019-02-05T08:47:29.352Z,101862.13
2019-02-05T08:50:01.091Z,101863.35
2019-02-05T08:52:32.836Z,101864.25
2019-02-05T08:55:04.421Z,101861.23
2019-02-05T08:57:35.978Z,101858.70
2019-02-05T09:00:12.379Z,101859.08
2019-02-05T09:02:44.070Z,101853.05
2019-02-05T09:05:16.000Z,101849.19
2019-02-05T09:07:47.550Z,101844.44
2019-02-05T09:10:31.422Z,101851.77
2019-02-05T09:13:03.097Z,101844.84
2019-02-05T09:15:35.263Z,101853.45
2019-02-05T09:18:07.181Z,101850.02
2019-02-05T09:20:38.729Z,101852.16
2019-02-05T09:23:10.380Z,101847.50
2019-02-05T09:25:41.990Z,101842.75
2019-02-05T09:28:15.111Z,101847.88
2019-02-05T09:30:46.952Z,101843.66
2019-02-05T09:33:18.431Z,101841.03
2019-02-05T09:35:49.938Z,101845.75
2019-02-05T09:38:21.650Z,101845.73
2019-02-05T09:40:53.170Z,101849.30
2019-02-05T09:43:24.622Z,101849.23
2019-02-05T09:45:56.448Z,101844.89
2019-02-05T09:48:28.244Z,101834.09
2019-02-05T09:50:59.755Z,101841.00
2019-02-05T09:53:31.292Z,101839.72
2019-02-05T09:56:03.694Z,101834.98
2019-02-05T09:58:35.188Z,101824.62
2019-02-05T10:01:07.078Z,101826.37
2019-02-05T10:03:38.690Z,101821.52
2019-02-05T10:06:10.128Z,101826.23
2019-02-05T10:08:41.640Z,101812.26
2019-02-05T10:11:13.100Z,101811.22
2019-02-05T10:13:44.562Z,101800.80
2019-02-05T10:16:16.044Z,101802.03
2019-02-05T10:18:47.621Z,101801.48
2019-02-05T10:21:19.124Z,101799.22
2019-02-05T10:23:51.113Z,101791.80
2019-02-05T10:26:22.717Z,101789.97
2019-02-05T10:28:54.263Z,101781.30
2019-02-05T10:31:26.325Z,101777.87
2019-02-05T10:33:58.086Z,101773.92
2019-02-05T10:36:30.060Z,101762.73
2019-02-05T10:39:01.689Z,101765.84
2019-02-05T10:41:34.799Z,101761.63
2019-02-05T10:44:06.483Z,101768.87
2019-02-05T10:46:38.259Z,101762.69
2019-02-05T10:49:10.248Z,101756.13
2019-02-05T10:51:41.761Z,101756.41
2019-02-05T10:54:13.334Z,101743.70
2019-02-05T10:56:44.896Z,101741.44
2019-02-05T10:59:16.434Z,101727.61
2019-02-05T11:01:48.348Z,101714.47
2019-02-05T11:04:20.052Z,101712.73
2019-02-05T11:06:51.539Z,101713.06
2019-02-05T11:09:23.088Z,101709.53
2019-02-05T11:11:54.901Z,101708.17
2019-02-05T11:14:26.492Z,101711.89
2019-02-05T11:16:58.216Z,101714.37
2019-02-05T11:19:29.807Z,101718.05
2019-02-05T11:22:01.295Z,101710.78
2019-02-05T11:24:32.881Z,101706.56
2019-02-05T11:27:04.351Z,101711.51
2019-02-05T11:29:35.981Z,101712.89
2019-02-05T11:32:08.185Z,101710.06
2019-02-05T11:34:39.655Z,101719.98
2019-02-05T11:37:11.236Z,101717.21
2019-02-05T11:39:42.720Z,101718.31
2019-02-05T11:42:14.192Z,101721.97
2019-02-05T11:44:45.747Z,101716.59
2019-02-05T11:47:17.259Z,101711.75
2019-02-05T11:49:49.087Z,101717.92
2019-02-05T11:52:20.717Z,101709.53
2019-02-05T11:54:52.919Z,101707.73
2019-02-05T11:57:25.361Z,101704.83
2019-02-05T11:59:57.362Z,101704.46
2019-02-05T12:02:28.972Z,101696.06
2019-02-05T12:05:00.659Z,101695.39
2019-02-05T12:07:32.174Z,101682.61
2019-02-05T12:10:03.974Z,101679.83
2019-02-05T12:12:35.919Z,101680.72
2019-02-05T12:15:09.839Z,101674.61
2019-02-05T12:17:41.586Z,101678.83
2019-02-05T12:20:14.740Z,101676.66
2019-02-05T12:22:46.263Z,101678.77
2019-02-05T12:25:18.567Z,101680.16
2019-02-05T12:27:50.197Z,101676.92
2019-02-05T12:30:26.414Z,101677.02
2019-02-05T12:32:57.950Z,101680.17
2019-02-05T12:35:29.548Z,101670.81
2019-02-05T12:38:01.014Z,101680.36
2019-02-05T12:40:32.874Z,101678.24
2019-02-05T12:43:04.424Z,101680.03
2019-02-05T12:45:36.163Z,101666.89
2019-02-05T12:48:07.819Z,101671.39
2019-02-05T12:50:39.793Z,101662.80
2019-02-05T12:53:11.296Z,101662.87
2019-02-05T12:55:42.914Z,101661.25
2019-02-05T12:58:14.397Z,101653.63
2019-02-05T13:00:58.233Z,101646.38
2019-02-05T13:03:25.776Z,101640.39
2019-02-05T13:05:57.543Z,101646.64
2019-02-05T13:08:29.088Z,101641.31
2019-02-05T13:11:01.045Z,101630.44
2019-02-05T13:13:32.753Z,101627.33
2019-02-05T13:16:04.670Z,101623.34
2019-02-05T13:18:37.324Z,101614.55
2019-02-05T13:21:08.237Z,101615.70
2019-02-05T13:23:39.785Z,101619.20
2019-02-05T13:26:11.280Z,101615.67
2019-02-05T13:28:43.056Z,101605.18
2019-02-05T13:31:14.907Z,101595.78
2019-02-05T13:33:46.761Z,101595.68
2019-02-05T13:36:18.540Z,101588.98
2019-02-05T13:38:50.049Z,101586.63
2019-02-05T13:41:21.923Z,101585.58
2019-02-05T13:43:53.432Z,101584.81
2019-02-05T13:46:25.259Z,101576.95
2019-02-05T13:48:57.094Z,101578.41
2019-02-05T13:51:28.601Z,101570.05
2019-02-05T13:54:00.288Z,101576.00
2019-02-05T13:56:32.189Z,101579.13
2019-02-05T13:59:03.758Z,101577.87
2019-02-05T14:01:35.376Z,101579.73
2019-02-05T14:04:06.936Z,101580.52
2019-02-05T14:06:38.918Z,101571.95
2019-02-05T14:09:13.923Z,101563.84
2019-02-05T14:11:45.509Z,101566.69
2019-02-05T14:14:17.066Z,101556.81
2019-02-05T14:16:49.552Z,101567.80
2019-02-05T14:19:21.423Z,101570.14
2019-02-05T14:21:53.159Z,101573.59
2019-02-05T14:24:24.652Z,101572.89
2019-02-05T14:26:56.287Z,101572.54
2019-02-05T14:29:27.771Z,101571.18
2019-02-05T14:31:59.874Z,101573.51
2019-02-05T14:34:31.534Z,101573.16
2019-02-05T14:37:03.309Z,101562.58
2019-02-05T14:39:35.101Z,101572.45
2019-02-05T14:42:07.757Z,101571.04
2019-02-05T14:44:39.372Z,101568.31
2019-02-05T14:47:11.286Z,101564.53
2019-02-05T14:49:42.712Z,101568.51
2019-02-05T14:52:14.290Z,101571.48
2019-02-05T14:54:45.928Z,101572.18
2019-02-05T14:57:17.798Z,101571.77
2019-02-05T14:59:49.426Z,101577.89
2019-02-05T15:02:20.970Z,101574.35
2019-02-05T15:04:52.807Z,101574.79
2019-02-05T15:07:24.511Z,101566.99
2019-02-05T15:09:56.150Z,101561.33
2019-02-05T15:12:27.754Z,101551.94
2019-02-05T15:14:59.228Z,101559.94
2019-02-05T15:17:30.763Z,101556.84
2019-02-05T15:20:02.710Z,101557.45
2019-02-05T15:22:35.439Z,101541.92
2019-02-05T15:25:08.674Z,101547.00
2019-02-05T15:27:40.386Z,101541.22
2019-02-05T15:30:17.610Z,101522.33
2019-02-05T15:33:00.436Z,101519.22
2019-02-05T15:35:32.344Z,101515.84
2019-02-05T15:38:04.260Z,101530.45
2019-02-05T15:40:36.196Z,101538.39
2019-02-05T15:43:08.691Z,101540.11
2019-02-05T15:45:40.209Z,101538.48
2019-02-05T15:48:12.095Z,101537.63
2019-02-05T15:50:43.804Z,101534.84
2019-02-05T15:53:15.816Z,101549.19
2019-02-05T15:55:48.426Z,101549.20
2019-02-05T15:58:20.248Z,101546.30
2019-02-05T16:00:51.839Z,101535.98
2019-02-05T16:03:23.532Z,101536.25
2019-02-05T16:05:55.309Z,101538.97
2019-02-05T16:08:27.768Z,101529.28
2019-02-05T16:10:59.349Z,101535.09
2019-02-05T16:13:31.130Z,101538.93
2019-02-05T16:16:02.823Z,101531.70
2019-02-05T16:18:34.748Z,101546.47
2019-02-05T16:21:06.754Z,101539.63
2019-02-05T16:23:38.625Z,101536.48
2019-02-05T16:26:10.078Z,101528.34
2019-02-05T16:28:41.614Z,101539.30
2019-02-05T16:31:13.103Z,101537.06
2019-02-05T16:33:45.249Z,101537.03
2019-02-05T16:36:16.899Z,101535.86
2019-02-05T16:38:48.525Z,101536.27
2019-02-05T16:41:20.016Z,101534.10
2019-02-05T16:43:51.693Z,101533.81
2019-02-05T16:46:23.682Z,101531.55
2019-02-05T16:48:55.496Z,101522.83
2019-02-05T16:51:26.998Z,101521.05
2019-02-05T16:53:58.476Z,101517.77
2019-02-05T16:56:30.222Z,101517.68
2019-02-05T16:59:02.717Z,101514.66
2019-02-05T17:01:34.353Z,101512.95
2019-02-05T17:04:06.135Z,101523.88
2019-02-05T17:06:38.028Z,101519.50
2019-02-05T17:09:16.952Z,101525.86
2019-02-05T17:11:48.559Z,101524.92
2019-02-05T17:14:20.356Z,101511.98
2019-02-05T17:16:51.867Z,101517.11
2019-02-05T17:19:23.486Z,101520.50
2019-02-05T17:21:55.508Z,101517.44
2019-02-05T17:24:27.395Z,101506.12
2019-02-05T17:26:58.964Z,101493.48
2019-02-05T17:29:30.796Z,101500.69
2019-02-05T17:32:02.381Z,101504.72
2019-02-05T17:34:34.113Z,101511.87
2019-02-05T17:37:05.858Z,101525.22
2019-02-05T17:39:37.574Z,101523.55
2019-02-05T17:42:09.226Z,101530.02
2019-02-05T17:44:40.721Z,101531.76
2019-02-05T17:47:12.255Z,101528.73
2019-02-05T17:49:43.831Z,101530.82
2019-02-05T17:52:16.158Z,101525.07
2019-02-05T17:54:47.756Z,101530.47
2019-02-05T17:57:19.336Z,101520.47
2019-02-05T17:59:51.175Z,101514.87
2019-02-05T18:02:22.668Z,101518.22
2019-02-05T18:04:54.597Z,101517.45
2019-02-05T18:07:26.442Z,101511.11
2019-02-05T18:09:59.440Z,101516.38
2019-02-05T18:12:30.968Z,101521.55
2019-02-05T18:15:02.801Z,101516.47
2019-02-05T18:17:34.898Z,101522.35
2019-02-05T18:20:08.796Z,101523.48
2019-02-05T18:22:40.699Z,101521.70
2019-02-05T18:25:15.987Z,101527.34
2019-02-05T18:27:48.296Z,101536.98
2019-02-05T18:30:27.358Z,101527.91
2019-02-05T18:33:04.909Z,101523.05
2019-02-05T18:35:34.798Z,101522.61
2019-02-05T18:38:08.635Z,101521.33
2019-02-05T18:40:42.279Z,101519.17
2019-02-05T18:43:14.760Z,101513.55
2019-02-05T18:45:46.634Z,101520.02
2019-02-05T18:48:18.244Z,101515.34
2019-02-05T18:50:50.330Z,101509.06
2019-02-05T18:53:22.066Z,101508.59
2019-02-05T18:55:54.509Z,101517.20
2019-02-05T18:58:27.010Z,101518.95
2019-02-05T19:00:59.438Z,101524.89
2019-02-05T19:03:31.297Z,101522.22
2019-02-05T19:06:03.332Z,101525.55
2019-02-05T19:08:35.658Z,101519.98
2019-02-05T19:11:07.553Z,101516.52
2019-02-05T19:13:39.150Z,101518.73
2019-02-05T19:16:12.104Z,101524.89
2019-02-05T19:18:44.013Z,101533.57
2019-02-05T19:21:15.831Z,101524.14
2019-02-05T19:23:49.649Z,101524.16
2019-02-05T19:26:28.581Z,101528.02
2019-02-05T19:29:00.340Z,101519.06
2019-02-05T19:31:34.572Z,101518.69
2019-02-05T19:34:09.384Z,101519.54
2019-02-05T19:36:41.244Z,101519.09
2019-02-05T19:39:13.164Z,101517.84
2019-02-05T19:41:45.144Z,101520.53
2019-02-05T19:44:16.816Z,101521.84
2019-02-05T19:46:54.011Z,101518.84
2019-02-05T19:49:48.077Z,101517.89
2019-02-05T19:52:20.067Z,101521.36
2019-02-05T19:54:52.182Z,101525.31
2019-02-05T19:57:24.208Z,101526.09
2019-02-05T19:59:56.261Z,101515.80
2019-02-05T20:02:28.406Z,101515.37
2019-02-05T20:05:00.218Z,101517.96
2019-02-05T20:07:32.216Z,101521.37
2019-02-05T20:10:04.605Z,101522.27
2019-02-05T20:12:36.627Z,101527.89
2019-02-05T20:15:09.673Z,101525.31
2019-02-05T20:17:41.727Z,101517.05
2019-02-05T20:20:15.443Z,101519.31
2019-02-05T20:22:47.763Z,101527.52
2019-02-05T20:25:19.954Z,101521.89
2019-02-05T20:27:52.121Z,101527.45
2019-02-05T20:30:24.482Z,101522.73
2019-02-05T20:32:57.037Z,101521.77
2019-02-05T20:35:28.912Z,101523.96
2019-02-05T20:38:01.095Z,101512.23
2019-02-05T20:40:32.726Z,101515.64
2019-02-05T20:43:04.757Z,101520.27
2019-02-05T20:45:36.404Z,101518.97
2019-02-05T20:48:08.372Z,101521.55
2019-02-05T20:50:40.569Z,101522.86
2019-02-05T20:53:14.301Z,101528.36
2019-02-05T20:55:47.531Z,101529.33
2019-02-05T20:58:19.718Z,101526.66
2019-02-05T21:00:51.351Z,101519.22
2019-02-05T21:03:24.042Z,101520.04
2019-02-05T21:05:56.024Z,101526.98
2019-02-05T21:08:27.980Z,101525.77
2019-02-05T21:11:00.197Z,101523.94
2019-02-05T21:13:32.122Z,101530.39
2019-02-05T21:16:04.421Z,101529.58
2019-02-05T21:18:36.661Z,101531.33
2019-02-05T21:21:08.754Z,101526.59
2019-02-05T21:23:40.854Z,101530.03
2019-02-05T21:26:12.649Z,101530.81
2019-02-05T21:28:44.846Z,101528.95
2019-02-05T21:31:16.646Z,101527.22
2019-02-05T21:33:48.430Z,101526.93
2019-02-05T21:36:20.134Z,101524.81
2019-02-05T21:38:52.075Z,101525.68
2019-02-05T21:41:24.006Z,101522.24
2019-02-05T21:43:55.888Z,101532.14
2019-02-05T21:46:27.540Z,101533.41
2019-02-05T21:48:59.300Z,101534.66
2019-02-05T21:51:40.091Z,101530.77
2019-02-05T21:54:04.659Z,101537.23
2019-02-05T21:56:36.478Z,101532.14
2019-02-05T21:59:08.405Z,101536.42
2019-02-05T22:01:40.295Z,101531.66
2019-02-05T22:04:12.115Z,101528.47
2019-02-05T22:06:43.736Z,101530.47
2019-02-05T22:09:15.962Z,101527.80
2019-02-05T22:11:47.880Z,101522.16
2019-02-05T22:14:19.673Z,101518.70
2019-02-05T22:16:51.160Z,101524.37
2019-02-05T22:19:23.363Z,101520.02
2019-02-05T22:21:55.083Z,101526.16
2019-02-05T22:24:26.773Z,101526.62
2019-02-05T22:26:58.905Z,101527.80
2019-02-05T22:29:30.842Z,101522.17
2019-02-05T22:32:03.427Z,101525.11
2019-02-05T22:34:39.336Z,101527.33
2019-02-05T22:37:08.408Z,101526.48
2019-02-05T22:39:40.617Z,101525.22
2019-02-05T22:42:12.438Z,101524.83
2019-02-05T22:44:44.751Z,101516.58
2019-02-05T22:47:16.385Z,101532.59
2019-02-05T22:49:48.259Z,101520.98
2019-02-05T22:52:19.803Z,101517.08
2019-02-05T22:54:51.413Z,101516.64
2019-02-05T22:57:23.241Z,101514.52
2019-02-05T22:59:54.750Z,101514.34
2019-02-05T23:02:26.295Z,101509.23
2019-02-05T23:05:39.579Z,101511.27
2019-02-05T23:08:11.208Z,101506.88
2019-02-05T23:11:26.107Z,101503.40
2019-02-05T23:13:57.640Z,101500.30
2019-02-05T23:16:29.284Z,101500.31
2019-02-05T23:19:00.813Z,101500.82
2019-02-05T23:21:32.611Z,101494.83
2019-02-05T23:24:04.378Z,101495.25
2019-02-05T23:26:36.084Z,101498.71
2019-02-05T23:29:07.527Z,101495.78
2019-02-05T23:31:39.258Z,101500.57
2019-02-05T23:34:11.093Z,101494.60
2019-02-05T23:36:43.276Z,101498.72
2019-02-05T23:39:14.764Z,101494.91
2019-02-05T23:41:46.376Z,101495.44
2019-02-05T23:44:17.835Z,101490.70
2019-02-05T23:46:49.375Z,101496.72
2019-02-05T23:49:21.116Z,101492.27
2019-02-05T23:51:52.823Z,101497.45
2019-02-05T23:54:24.529Z,101501.51
2019-02-05T23:56:56.624Z,101496.73
2019-02-05T23:59:28.474Z,101500.10
